sensor_id;sensor_type;location;lat;lon;timestamp;pressure;altitude;pressure_sealevel;temperature;humidity
12146;BME280;6136;47.032;15.398;2022-12-18T00:00:06;98890.38;;;-2.06;100.00
12146;BME280;6136;47.032;15.398;2022-12-18T00:02:39;98892.13;;;-2.04;100.00
12146;BME280;6136;47.032;15.398;2022-12-18T00:05:07;98903.38;;;-2.08;100.00
12146;BME280;6136;47.032;15.398;2022-12-18T00:07:36;98905.97;;;-2.08;100.00
12146;BME280;6136;47.032;15.398;2022-12-18T00:10:05;98889.34;;;-2.25;100.00
12146;BME280;6136;47.032;15.398;2022-12-18T00:12:34;98904.97;;;-2.19;100.00
12146;BME280;6136;47.032;15.398;2022-12-18T00:15:03;98905.81;;;-2.20;100.00
12146;BME280;6136;47.032;15.398;2022-12-18T00:17:32;98900.56;;;-2.26;100.00
12146;BME280;6136;47.032;15.398;2022-12-18T00:20:01;98914.47;;;-2.24;100.00
12146;BME280;6136;47.032;15.398;2022-12-18T00:22:29;98916.22;;;-2.20;100.00
12146;BME280;6136;47.032;15.398;2022-12-18T00:24:57;98903.16;;;-2.27;100.00
12146;BME280;6136;47.032;15.398;2022-12-18T00:27:25;98920.34;;;-2.39;100.00
12146;BME280;6136;47.032;15.398;2022-12-18T00:29:53;98925.25;;;-2.64;100.00
12146;BME280;6136;47.032;15.398;2022-12-18T00:32:21;98917.53;;;-2.58;100.00
12146;BME280;6136;47.032;15.398;2022-12-18T00:34:51;98938.34;;;-2.55;100.00
12146;BME280;6136;47.032;15.398;2022-12-18T00:37:19;98940.94;;;-2.54;100.00
12146;BME280;6136;47.032;15.398;2022-12-18T00:39:50;98940.06;;;-2.54;100.00
12146;BME280;6136;47.032;15.398;2022-12-18T00:42:19;98952.28;;;-2.44;100.00
12146;BME280;6136;47.032;15.398;2022-12-18T00:45:05;98937.53;;;-2.50;100.00
12146;BME280;6136;47.032;15.398;2022-12-18T00:47:39;98959.34;;;-2.34;100.00
12146;BME280;6136;47.032;15.398;2022-12-18T00:50:09;98953.22;;;-2.39;100.00
12146;BME280;6136;47.032;15.398;2022-12-18T00:52:39;98957.69;;;-2.26;100.00
12146;BME280;6136;47.032;15.398;2022-12-18T00:55:07;98958.56;;;-2.25;100.00
12146;BME280;6136;47.032;15.398;2022-12-18T00:57:36;98963.63;;;-2.39;100.00
12146;BME280;6136;47.032;15.398;2022-12-18T01:00:09;98948.81;;;-2.46;100.00
12146;BME280;6136;47.032;15.398;2022-12-18T01:02:37;98952.22;;;-2.50;100.00
12146;BME280;6136;47.032;15.398;2022-12-18T01:05:09;98959.03;;;-2.61;100.00
12146;BME280;6136;47.032;15.398;2022-12-18T01:07:37;98954.59;;;-2.70;100.00
12146;BME280;6136;47.032;15.398;2022-12-18T01:10:07;98977.97;;;-2.65;100.00
12146;BME280;6136;47.032;15.398;2022-12-18T01:12:37;98969.22;;;-2.74;100.00
12146;BME280;6136;47.032;15.398;2022-12-18T01:15:06;98970.09;;;-2.75;100.00
12146;BME280;6136;47.032;15.398;2022-12-18T01:17:36;98980.41;;;-2.79;100.00
12146;BME280;6136;47.032;15.398;2022-12-18T01:20:05;98974.25;;;-2.87;100.00
12146;BME280;6136;47.032;15.398;2022-12-18T01:22:35;98986.25;;;-2.94;100.00
12146;BME280;6136;47.032;15.398;2022-12-18T01:25:04;98989.69;;;-2.98;100.00
12146;BME280;6136;47.032;15.398;2022-12-18T01:27:33;98981.81;;;-3.02;100.00
12146;BME280;6136;47.032;15.398;2022-12-18T01:30:04;98982.53;;;-3.14;100.00
12146;BME280;6136;47.032;15.398;2022-12-18T01:32:32;98985.00;;;-3.22;100.00
12146;BME280;6136;47.032;15.398;2022-12-18T01:35:01;98998.88;;;-3.18;100.00
12146;BME280;6136;47.032;15.398;2022-12-18T01:37:29;98993.44;;;-3.35;100.00
12146;BME280;6136;47.032;15.398;2022-12-18T01:39:59;98997.78;;;-3.32;100.00
12146;BME280;6136;47.032;15.398;2022-12-18T01:42:27;99010.84;;;-3.28;100.00
12146;BME280;6136;47.032;15.398;2022-12-18T01:45:02;98995.94;;;-3.39;100.00
12146;BME280;6136;47.032;15.398;2022-12-18T01:47:35;99010.72;;;-3.35;100.00
12146;BME280;6136;47.032;15.398;2022-12-18T01:50:08;98999.44;;;-3.37;100.00
12146;BME280;6136;47.032;15.398;2022-12-18T01:52:37;99011.56;;;-3.36;100.00
12146;BME280;6136;47.032;15.398;2022-12-18T01:55:08;99012.34;;;-3.40;100.00
12146;BME280;6136;47.032;15.398;2022-12-18T01:57:37;99021.94;;;-3.36;100.00
12146;BME280;6136;47.032;15.398;2022-12-18T02:00:09;99032.38;;;-3.30;100.00
12146;BME280;6136;47.032;15.398;2022-12-18T02:02:41;99028.84;;;-3.35;100.00
12146;BME280;6136;47.032;15.398;2022-12-18T02:05:16;99034.03;;;-3.35;100.00
12146;BME280;6136;47.032;15.398;2022-12-18T02:07:56;99020.91;;;-3.46;100.00
12146;BME280;6136;47.032;15.398;2022-12-18T02:10:41;99022.69;;;-3.40;100.00
12146;BME280;6136;47.032;15.398;2022-12-18T02:13:16;99036.69;;;-3.31;100.00
12146;BME280;6136;47.032;15.398;2022-12-18T02:15:51;99021.03;;;-3.38;100.00
12146;BME280;6136;47.032;15.398;2022-12-18T02:18:26;99033.88;;;-3.44;100.00
12146;BME280;6136;47.032;15.398;2022-12-18T02:20:59;99039.88;;;-3.48;100.00
12146;BME280;6136;47.032;15.398;2022-12-18T02:23:46;99031.88;;;-3.61;100.00
12146;BME280;6136;47.032;15.398;2022-12-18T02:26:19;99047.53;;;-3.55;100.00
12146;BME280;6136;47.032;15.398;2022-12-18T02:28:55;99053.59;;;-3.53;100.00
12146;BME280;6136;47.032;15.398;2022-12-18T02:31:29;99032.63;;;-3.68;100.00
12146;BME280;6136;47.032;15.398;2022-12-18T02:34:02;99049.06;;;-3.66;100.00
12146;BME280;6136;47.032;15.398;2022-12-18T02:36:38;99051.56;;;-3.72;100.00
12146;BME280;6136;47.032;15.398;2022-12-18T02:39:11;99040.19;;;-3.80;100.00
12146;BME280;6136;47.032;15.398;2022-12-18T02:41:51;99039.34;;;-3.79;100.00
12146;BME280;6136;47.032;15.398;2022-12-18T02:44:21;99048.78;;;-3.81;100.00
12146;BME280;6136;47.032;15.398;2022-12-18T02:46:50;99048.72;;;-3.84;100.00
12146;BME280;6136;47.032;15.398;2022-12-18T02:49:26;99043.25;;;-3.99;100.00
12146;BME280;6136;47.032;15.398;2022-12-18T02:52:05;99050.97;;;-4.02;100.00
12146;BME280;6136;47.032;15.398;2022-12-18T02:54:45;99063.81;;;-4.08;100.00
12146;BME280;6136;47.032;15.398;2022-12-18T02:57:24;99053.09;;;-4.26;100.00
12146;BME280;6136;47.032;15.398;2022-12-18T03:00:04;99068.53;;;-4.30;100.00
12146;BME280;6136;47.032;15.398;2022-12-18T03:02:40;99068.50;;;-4.33;100.00
12146;BME280;6136;47.032;15.398;2022-12-18T03:05:15;99071.13;;;-4.31;100.00
12146;BME280;6136;47.032;15.398;2022-12-18T03:07:49;99071.91;;;-4.34;100.00
12146;BME280;6136;47.032;15.398;2022-12-18T03:10:24;99061.38;;;-4.43;100.00
12146;BME280;6136;47.032;15.398;2022-12-18T03:13:00;99063.91;;;-4.46;100.00
12146;BME280;6136;47.032;15.398;2022-12-18T03:15:34;99084.69;;;-4.41;100.00
12146;BME280;6136;47.032;15.398;2022-12-18T03:18:12;99069.72;;;-4.56;100.00
12146;BME280;6136;47.032;15.398;2022-12-18T03:20:43;99055.75;;;-4.64;100.00
12146;BME280;6136;47.032;15.398;2022-12-18T03:23:19;99073.34;;;-4.48;100.00
12146;BME280;6136;47.032;15.398;2022-12-18T03:25:55;99066.31;;;-4.55;100.00
12146;BME280;6136;47.032;15.398;2022-12-18T03:28:39;99071.44;;;-4.56;100.00
12146;BME280;6136;47.032;15.398;2022-12-18T03:31:11;99060.88;;;-4.67;100.00
12146;BME280;6136;47.032;15.398;2022-12-18T03:33:45;99071.31;;;-4.62;100.00
12146;BME280;6136;47.032;15.398;2022-12-18T03:36:14;99058.84;;;-4.80;100.00
12146;BME280;6136;47.032;15.398;2022-12-18T03:38:43;99080.47;;;-4.77;100.00
12146;BME280;6136;47.032;15.398;2022-12-18T03:41:17;99081.13;;;-4.85;100.00
12146;BME280;6136;47.032;15.398;2022-12-18T03:44:17;99095.72;;;-4.87;100.00
12146;BME280;6136;47.032;15.398;2022-12-18T03:46:55;99073.94;;;-4.98;100.00
12146;BME280;6136;47.032;15.398;2022-12-18T03:49:33;99086.19;;;-4.91;100.00
12146;BME280;6136;47.032;15.398;2022-12-18T03:52:06;99096.50;;;-4.91;100.00
12146;BME280;6136;47.032;15.398;2022-12-18T03:54:39;99099.84;;;-4.97;100.00
12146;BME280;6136;47.032;15.398;2022-12-18T03:57:16;99095.28;;;-5.07;100.00
12146;BME280;6136;47.032;15.398;2022-12-18T03:59:51;99101.19;;;-5.11;100.00
12146;BME280;6136;47.032;15.398;2022-12-18T04:02:26;99094.03;;;-5.23;100.00
12146;BME280;6136;47.032;15.398;2022-12-18T04:05:00;99101.19;;;-5.13;100.00
12146;BME280;6136;47.032;15.398;2022-12-18T04:07:32;99117.44;;;-5.17;100.00
12146;BME280;6136;47.032;15.398;2022-12-18T04:10:02;99111.38;;;-5.19;100.00
12146;BME280;6136;47.032;15.398;2022-12-18T04:12:31;99112.22;;;-5.20;100.00
12146;BME280;6136;47.032;15.398;2022-12-18T04:15:01;99096.44;;;-5.30;100.00
12146;BME280;6136;47.032;15.398;2022-12-18T04:17:29;99104.97;;;-5.34;100.00
12146;BME280;6136;47.032;15.398;2022-12-18T04:19:57;99108.44;;;-5.32;100.00
12146;BME280;6136;47.032;15.398;2022-12-18T04:22:26;99109.31;;;-5.32;100.00
12146;BME280;6136;47.032;15.398;2022-12-18T04:24:58;99107.78;;;-5.24;100.00
12146;BME280;6136;47.032;15.398;2022-12-18T04:27:34;99132.19;;;-5.13;100.00
12146;BME280;6136;47.032;15.398;2022-12-18T04:30:06;99137.03;;;-5.26;100.00
12146;BME280;6136;47.032;15.398;2022-12-18T04:32:35;99142.06;;;-5.31;100.00
12146;BME280;6136;47.032;15.398;2022-12-18T04:35:04;99149.81;;;-5.31;100.00
12146;BME280;6136;47.032;15.398;2022-12-18T04:37:38;99142.72;;;-5.38;100.00
12146;BME280;6136;47.032;15.398;2022-12-18T04:40:07;99148.56;;;-5.45;100.00
12146;BME280;6136;47.032;15.398;2022-12-18T04:42:40;99151.06;;;-5.48;100.00
12146;BME280;6136;47.032;15.398;2022-12-18T04:45:10;99153.84;;;-5.42;100.00
12146;BME280;6136;47.032;15.398;2022-12-18T04:47:38;99159.78;;;-5.44;100.00
12146;BME280;6136;47.032;15.398;2022-12-18T04:50:07;99150.25;;;-5.47;100.00
12146;BME280;6136;47.032;15.398;2022-12-18T04:52:36;99162.38;;;-5.44;100.00
12146;BME280;6136;47.032;15.398;2022-12-18T04:55:04;99169.09;;;-5.51;100.00
12146;BME280;6136;47.032;15.398;2022-12-18T04:57:33;99172.41;;;-5.55;100.00
12146;BME280;6136;47.032;15.398;2022-12-18T05:00:01;99173.22;;;-5.58;100.00
12146;BME280;6136;47.032;15.398;2022-12-18T05:02:30;99175.03;;;-5.54;100.00
12146;BME280;6136;47.032;15.398;2022-12-18T05:04:59;99177.78;;;-5.48;100.00
12146;BME280;6136;47.032;15.398;2022-12-18T05:07:27;99171.66;;;-5.51;100.00
12146;BME280;6136;47.032;15.398;2022-12-18T05:09:55;99177.56;;;-5.55;100.00
12146;BME280;6136;47.032;15.398;2022-12-18T05:12:23;99179.31;;;-5.54;100.00
12146;BME280;6136;47.032;15.398;2022-12-18T05:14:51;99181.78;;;-5.59;100.00
12146;BME280;6136;47.032;15.398;2022-12-18T05:17:19;99188.72;;;-5.58;100.00
12146;BME280;6136;47.032;15.398;2022-12-18T05:19:49;99190.47;;;-5.55;100.00
12146;BME280;6136;47.032;15.398;2022-12-18T05:22:17;99194.03;;;-5.52;100.00
12146;BME280;6136;47.032;15.398;2022-12-18T05:24:45;99200.13;;;-5.48;100.00
12146;BME280;6136;47.032;15.398;2022-12-18T05:27:13;99197.91;;;-5.36;100.00
12146;BME280;6136;47.032;15.398;2022-12-18T05:29:41;99197.13;;;-5.32;100.00
12146;BME280;6136;47.032;15.398;2022-12-18T05:32:10;99202.41;;;-5.29;100.00
12146;BME280;6136;47.032;15.398;2022-12-18T05:34:38;99194.81;;;-5.23;100.00
12146;BME280;6136;47.032;15.398;2022-12-18T05:37:07;99208.94;;;-5.09;100.00
12146;BME280;6136;47.032;15.398;2022-12-18T05:39:35;99208.22;;;-5.03;100.00
12146;BME280;6136;47.032;15.398;2022-12-18T05:42:03;99204.13;;;-4.95;100.00
12146;BME280;6136;47.032;15.398;2022-12-18T05:44:31;99209.28;;;-4.95;100.00
12146;BME280;6136;47.032;15.398;2022-12-18T05:47:00;99214.06;;;-5.10;100.00
12146;BME280;6136;47.032;15.398;2022-12-18T05:49:28;99221.88;;;-5.09;100.00
12146;BME280;6136;47.032;15.398;2022-12-18T05:51:57;99221.13;;;-5.04;100.00
12146;BME280;6136;47.032;15.398;2022-12-18T05:54:28;99215.91;;;-5.06;100.00
12146;BME280;6136;47.032;15.398;2022-12-18T05:56:56;99219.34;;;-5.07;100.00
12146;BME280;6136;47.032;15.398;2022-12-18T05:59:24;99216.56;;;-5.15;100.00
12146;BME280;6136;47.032;15.398;2022-12-18T06:01:52;99224.19;;;-5.19;100.00
12146;BME280;6136;47.032;15.398;2022-12-18T06:04:20;99235.31;;;-5.22;100.00
12146;BME280;6136;47.032;15.398;2022-12-18T06:06:49;99217.19;;;-5.23;100.00
12146;BME280;6136;47.032;15.398;2022-12-18T06:09:17;99232.72;;;-5.22;100.00
12146;BME280;6136;47.032;15.398;2022-12-18T06:11:46;99237.75;;;-5.28;100.00
12146;BME280;6136;47.032;15.398;2022-12-18T06:14:14;99232.47;;;-5.31;100.00
12146;BME280;6136;47.032;15.398;2022-12-18T06:16:43;99234.19;;;-5.31;100.00
12146;BME280;6136;47.032;15.398;2022-12-18T06:19:14;99244.47;;;-5.33;100.00
12146;BME280;6136;47.032;15.398;2022-12-18T06:21:43;99251.31;;;-5.35;100.00
12146;BME280;6136;47.032;15.398;2022-12-18T06:24:11;99255.69;;;-5.32;100.00
12146;BME280;6136;47.032;15.398;2022-12-18T06:26:40;99265.13;;;-5.33;100.00
12146;BME280;6136;47.032;15.398;2022-12-18T06:29:09;99244.34;;;-5.37;100.00
12146;BME280;6136;47.032;15.398;2022-12-18T06:31:37;99263.56;;;-5.28;100.00
12146;BME280;6136;47.032;15.398;2022-12-18T06:34:05;99273.25;;;-5.21;100.00
12146;BME280;6136;47.032;15.398;2022-12-18T06:36:33;99270.81;;;-5.15;100.00
12146;BME280;6136;47.032;15.398;2022-12-18T06:39:03;99277.13;;;-5.03;100.00
12146;BME280;6136;47.032;15.398;2022-12-18T06:41:31;99278.19;;;-4.97;100.00
12146;BME280;6136;47.032;15.398;2022-12-18T06:43:59;99284.41;;;-4.90;100.00
12146;BME280;6136;47.032;15.398;2022-12-18T06:46:29;99277.72;;;-4.82;100.00
12146;BME280;6136;47.032;15.398;2022-12-18T06:48:58;99276.28;;;-4.71;100.00
12146;BME280;6136;47.032;15.398;2022-12-18T06:51:29;99283.34;;;-4.64;100.00
12146;BME280;6136;47.032;15.398;2022-12-18T06:53:58;99292.88;;;-4.63;100.00
12146;BME280;6136;47.032;15.398;2022-12-18T06:56:26;99287.97;;;-4.52;100.00
12146;BME280;6136;47.032;15.398;2022-12-18T06:58:54;99299.34;;;-4.46;100.00
12146;BME280;6136;47.032;15.398;2022-12-18T07:01:23;99304.03;;;-4.31;100.00
12146;BME280;6136;47.032;15.398;2022-12-18T07:03:53;99304.06;;;-4.28;100.00
12146;BME280;6136;47.032;15.398;2022-12-18T07:06:23;99291.25;;;-4.23;100.00
12146;BME280;6136;47.032;15.398;2022-12-18T07:08:52;99300.03;;;-4.17;100.00
12146;BME280;6136;47.032;15.398;2022-12-18T07:11:21;99292.41;;;-4.11;100.00
12146;BME280;6136;47.032;15.398;2022-12-18T07:13:49;99299.69;;;-3.95;100.00
12146;BME280;6136;47.032;15.398;2022-12-18T07:16:19;99292.91;;;-3.89;100.00
12146;BME280;6136;47.032;15.398;2022-12-18T07:18:54;99292.22;;;-3.81;100.00
12146;BME280;6136;47.032;15.398;2022-12-18T07:21:23;99307.91;;;-3.75;100.00
12146;BME280;6136;47.032;15.398;2022-12-18T07:23:52;99306.09;;;-3.79;100.00
12146;BME280;6136;47.032;15.398;2022-12-18T07:26:21;99301.25;;;-3.64;100.00
12146;BME280;6136;47.032;15.398;2022-12-18T07:28:49;99301.25;;;-3.64;100.00
12146;BME280;6136;47.032;15.398;2022-12-18T07:31:20;99314.50;;;-3.50;100.00
12146;BME280;6136;47.032;15.398;2022-12-18T07:33:49;99317.25;;;-3.42;100.00
12146;BME280;6136;47.032;15.398;2022-12-18T07:36:19;99324.31;;;-3.35;100.00
12146;BME280;6136;47.032;15.398;2022-12-18T07:38:48;99332.28;;;-3.26;100.00
12146;BME280;6136;47.032;15.398;2022-12-18T07:41:16;99326.50;;;-3.13;100.00
12146;BME280;6136;47.032;15.398;2022-12-18T07:43:45;99330.97;;;-3.06;100.00
12146;BME280;6136;47.032;15.398;2022-12-18T07:46:14;99332.09;;;-2.92;100.00
12146;BME280;6136;47.032;15.398;2022-12-18T07:48:44;99324.66;;;-2.75;100.00
12146;BME280;6136;47.032;15.398;2022-12-18T07:51:16;99325.81;;;-2.59;100.00
12146;BME280;6136;47.032;15.398;2022-12-18T07:53:46;99336.50;;;-2.41;100.00
12146;BME280;6136;47.032;15.398;2022-12-18T07:56:18;99341.97;;;-2.26;100.00
12146;BME280;6136;47.032;15.398;2022-12-18T07:58:56;99346.41;;;-2.19;100.00
12146;BME280;6136;47.032;15.398;2022-12-18T08:01:25;99347.41;;;-2.11;100.00
12146;BME280;6136;47.032;15.398;2022-12-18T08:03:54;99357.16;;;-1.96;100.00
12146;BME280;6136;47.032;15.398;2022-12-18T08:06:22;99348.75;;;-1.81;100.00
12146;BME280;6136;47.032;15.398;2022-12-18T08:08:53;99348.47;;;-1.41;100.00
12146;BME280;6136;47.032;15.398;2022-12-18T08:11:22;99351.50;;;-1.07;100.00
12146;BME280;6136;47.032;15.398;2022-12-18T08:13:51;99348.25;;;-0.91;100.00
12146;BME280;6136;47.032;15.398;2022-12-18T08:16:20;99346.03;;;-0.56;100.00
12146;BME280;6136;47.032;15.398;2022-12-18T08:18:49;99348.75;;;-0.44;100.00
12146;BME280;6136;47.032;15.398;2022-12-18T08:21:19;99354.09;;;-0.29;100.00
12146;BME280;6136;47.032;15.398;2022-12-18T08:23:50;99363.63;;;-0.32;100.00
12146;BME280;6136;47.032;15.398;2022-12-18T08:26:21;99373.34;;;-0.13;100.00
12146;BME280;6136;47.032;15.398;2022-12-18T08:28:50;99362.13;;;-0.06;100.00
12146;BME280;6136;47.032;15.398;2022-12-18T08:31:19;99348.25;;;-0.05;100.00
12146;BME280;6136;47.032;15.398;2022-12-18T08:33:49;99341.44;;;0.15;100.00
12146;BME280;6136;47.032;15.398;2022-12-18T08:36:18;99325.84;;;0.20;100.00
12146;BME280;6136;47.032;15.398;2022-12-18T08:38:47;99341.53;;;0.24;100.00
12146;BME280;6136;47.032;15.398;2022-12-18T08:41:16;99339.88;;;0.35;100.00
12146;BME280;6136;47.032;15.398;2022-12-18T08:43:46;99349.56;;;0.52;100.00
12146;BME280;6136;47.032;15.398;2022-12-18T08:46:34;99352.34;;;0.85;99.84
12146;BME280;6136;47.032;15.398;2022-12-18T08:49:03;99359.31;;;0.92;100.00
12146;BME280;6136;47.032;15.398;2022-12-18T08:51:32;99351.56;;;1.07;100.00
12146;BME280;6136;47.032;15.398;2022-12-18T08:54:00;99359.50;;;1.32;99.43
12146;BME280;6136;47.032;15.398;2022-12-18T08:56:30;99334.22;;;1.34;96.33
12146;BME280;6136;47.032;15.398;2022-12-18T08:59:00;99355.22;;;1.64;96.16
12146;BME280;6136;47.032;15.398;2022-12-18T09:01:28;99362.13;;;1.48;95.68
12146;BME280;6136;47.032;15.398;2022-12-18T09:03:57;99364.75;;;1.50;96.05
12146;BME280;6136;47.032;15.398;2022-12-18T09:06:25;99362.09;;;1.32;94.38
12146;BME280;6136;47.032;15.398;2022-12-18T09:08:54;99362.94;;;1.19;98.80
12146;BME280;6136;47.032;15.398;2022-12-18T09:11:24;99365.63;;;1.50;98.67
12146;BME280;6136;47.032;15.398;2022-12-18T09:13:54;99370.06;;;1.77;95.40
12146;BME280;6136;47.032;15.398;2022-12-18T09:16:24;99369.22;;;2.10;93.20
12146;BME280;6136;47.032;15.398;2022-12-18T09:18:58;99369.22;;;2.44;89.55
12146;BME280;6136;47.032;15.398;2022-12-18T09:21:28;99376.16;;;2.73;87.88
12146;BME280;6136;47.032;15.398;2022-12-18T09:23:56;99379.53;;;3.04;87.40
12146;BME280;6136;47.032;15.398;2022-12-18T09:26:25;99382.94;;;3.26;84.61
12146;BME280;6136;47.032;15.398;2022-12-18T09:28:54;99378.53;;;3.34;81.22
12146;BME280;6136;47.032;15.398;2022-12-18T09:31:24;99380.13;;;3.66;83.20
12146;BME280;6136;47.032;15.398;2022-12-18T09:33:54;99375.84;;;3.51;83.30
12146;BME280;6136;47.032;15.398;2022-12-18T09:36:22;99380.09;;;3.78;80.07
12146;BME280;6136;47.032;15.398;2022-12-18T09:38:50;99379.34;;;3.51;81.97
12146;BME280;6136;47.032;15.398;2022-12-18T09:41:33;99381.97;;;3.48;80.23
12146;BME280;6136;47.032;15.398;2022-12-18T09:44:11;99364.44;;;3.60;81.29
12146;BME280;6136;47.032;15.398;2022-12-18T09:46:46;99374.81;;;3.81;80.08
12146;BME280;6136;47.032;15.398;2022-12-18T09:49:17;99360.81;;;3.82;77.51
12146;BME280;6136;47.032;15.398;2022-12-18T09:51:49;99355.91;;;3.24;75.70
12146;BME280;6136;47.032;15.398;2022-12-18T09:54:22;99370.78;;;3.15;78.87
12146;BME280;6136;47.032;15.398;2022-12-18T09:56:52;99367.25;;;3.25;79.15
12146;BME280;6136;47.032;15.398;2022-12-18T09:59:23;99350.81;;;2.76;78.62
12146;BME280;6136;47.032;15.398;2022-12-18T10:01:53;99348.25;;;2.57;79.97
12146;BME280;6136;47.032;15.398;2022-12-18T10:04:21;99370.94;;;2.46;81.93
12146;BME280;6136;47.032;15.398;2022-12-18T10:06:54;99363.09;;;2.51;83.28
12146;BME280;6136;47.032;15.398;2022-12-18T10:09:37;99349.16;;;2.23;86.24
12146;BME280;6136;47.032;15.398;2022-12-18T10:12:14;99350.00;;;2.57;84.49
12146;BME280;6136;47.032;15.398;2022-12-18T10:14:51;99358.72;;;2.54;82.19
12146;BME280;6136;47.032;15.398;2022-12-18T10:17:28;99364.84;;;1.99;83.56
12146;BME280;6136;47.032;15.398;2022-12-18T10:20:03;99362.16;;;1.51;84.98
12146;BME280;6136;47.032;15.398;2022-12-18T10:22:45;99363.91;;;1.46;87.38
12146;BME280;6136;47.032;15.398;2022-12-18T10:25:22;99360.31;;;1.20;88.25
12146;BME280;6136;47.032;15.398;2022-12-18T10:27:54;99365.53;;;1.17;89.05
12146;BME280;6136;47.032;15.398;2022-12-18T10:30:25;99355.94;;;1.14;89.73
12146;BME280;6136;47.032;15.398;2022-12-18T10:33:00;99340.22;;;0.99;88.03
12146;BME280;6136;47.032;15.398;2022-12-18T10:35:28;99360.38;;;1.43;88.68
12146;BME280;6136;47.032;15.398;2022-12-18T10:38:02;99363.03;;;1.58;86.03
12146;BME280;6136;47.032;15.398;2022-12-18T10:40:31;99359.53;;;1.47;84.75
12146;BME280;6136;47.032;15.398;2022-12-18T10:43:04;99362.97;;;1.25;84.86
12146;BME280;6136;47.032;15.398;2022-12-18T10:45:33;99361.06;;;0.89;89.26
12146;BME280;6136;47.032;15.398;2022-12-18T10:48:03;99357.56;;;0.90;88.23
12146;BME280;6136;47.032;15.398;2022-12-18T10:50:33;99354.88;;;0.70;91.63
12146;BME280;6136;47.032;15.398;2022-12-18T10:53:25;99351.94;;;0.20;96.71
12146;BME280;6136;47.032;15.398;2022-12-18T10:55:57;99339.72;;;0.14;97.57
12146;BME280;6136;47.032;15.398;2022-12-18T10:58:29;99336.31;;;0.21;98.59
12146;BME280;6136;47.032;15.398;2022-12-18T11:01:08;99344.88;;;0.08;100.00
12146;BME280;6136;47.032;15.398;2022-12-18T11:03:39;99348.31;;;0.04;99.40
12146;BME280;6136;47.032;15.398;2022-12-18T11:06:11;99348.28;;;0.01;98.04
12146;BME280;6136;47.032;15.398;2022-12-18T11:08:40;99348.84;;;-0.33;100.00
12146;BME280;6136;47.032;15.398;2022-12-18T11:11:19;99355.78;;;-0.34;100.00
12146;BME280;6136;47.032;15.398;2022-12-18T11:13:58;99357.50;;;-0.39;100.00
12146;BME280;6136;47.032;15.398;2022-12-18T11:16:30;99356.63;;;-0.36;100.00
12146;BME280;6136;47.032;15.398;2022-12-18T11:19:17;99346.34;;;-0.24;100.00
12146;BME280;6136;47.032;15.398;2022-12-18T11:21:48;99350.53;;;-0.37;100.00
12146;BME280;6136;47.032;15.398;2022-12-18T11:24:24;99350.50;;;-0.42;100.00
12146;BME280;6136;47.032;15.398;2022-12-18T11:26:55;99345.09;;;-0.63;100.00
12146;BME280;6136;47.032;15.398;2022-12-18T11:29:32;99350.25;;;-0.67;100.00
12146;BME280;6136;47.032;15.398;2022-12-18T11:32:27;99344.84;;;-0.84;100.00
12146;BME280;6136;47.032;15.398;2022-12-18T11:35:03;99331.97;;;-0.72;100.00
12146;BME280;6136;47.032;15.398;2022-12-18T11:37:38;99319.91;;;-0.67;100.00
12146;BME280;6136;47.032;15.398;2022-12-18T11:40:14;99330.94;;;-0.86;100.00
12146;BME280;6136;47.032;15.398;2022-12-18T11:42:49;99322.31;;;-0.84;100.00
12146;BME280;6136;47.032;15.398;2022-12-18T11:45:26;99329.34;;;-0.73;100.00
12146;BME280;6136;47.032;15.398;2022-12-18T11:47:59;99324.78;;;-0.94;100.00
12146;BME280;6136;47.032;15.398;2022-12-18T11:50:41;99307.41;;;-0.98;100.00
12146;BME280;6136;47.032;15.398;2022-12-18T11:53:12;99324.88;;;-0.85;100.00
12146;BME280;6136;47.032;15.398;2022-12-18T11:55:48;99307.59;;;-0.80;100.00
12146;BME280;6136;47.032;15.398;2022-12-18T11:58:27;99315.38;;;-0.83;100.00
12146;BME280;6136;47.032;15.398;2022-12-18T12:01:07;99326.56;;;-0.89;100.00
12146;BME280;6136;47.032;15.398;2022-12-18T12:04:03;99323.94;;;-0.92;100.00
12146;BME280;6136;47.032;15.398;2022-12-18T12:06:43;99315.22;;;-0.95;100.00
12146;BME280;6136;47.032;15.398;2022-12-18T12:09:19;99324.66;;;-1.06;100.00
12146;BME280;6136;47.032;15.398;2022-12-18T12:12:10;99316.63;;;-1.23;100.00
12146;BME280;6136;47.032;15.398;2022-12-18T12:14:49;99320.94;;;-1.27;100.00
12146;BME280;6136;47.032;15.398;2022-12-18T12:17:29;99308.81;;;-1.25;100.00
12146;BME280;6136;47.032;15.398;2022-12-18T12:20:08;99307.13;;;-1.21;100.00
12146;BME280;6136;47.032;15.398;2022-12-18T12:22:46;99318.56;;;-1.07;100.00
12146;BME280;6136;47.032;15.398;2022-12-18T12:25:26;99323.78;;;-1.05;100.00
12146;BME280;6136;47.032;15.398;2022-12-18T12:28:05;99312.19;;;-1.32;100.00
12146;BME280;6136;47.032;15.398;2022-12-18T12:30:47;99305.22;;;-1.36;100.00
12146;BME280;6136;47.032;15.398;2022-12-18T12:33:30;99322.69;;;-1.23;100.00
12146;BME280;6136;47.032;15.398;2022-12-18T12:36:08;99324.47;;;-1.19;100.00
12146;BME280;6136;47.032;15.398;2022-12-18T12:38:46;99318.16;;;-1.39;100.00
12146;BME280;6136;47.032;15.398;2022-12-18T12:41:20;99315.41;;;-1.51;100.00
12146;BME280;6136;47.032;15.398;2022-12-18T12:44:15;99314.56;;;-1.47;100.00
12146;BME280;6136;47.032;15.398;2022-12-18T12:46:46;99318.91;;;-1.49;100.00
12146;BME280;6136;47.032;15.398;2022-12-18T12:49:17;99330.06;;;-1.54;100.00
12146;BME280;6136;47.032;15.398;2022-12-18T12:51:53;99317.03;;;-1.58;100.00
12146;BME280;6136;47.032;15.398;2022-12-18T12:54:27;99325.63;;;-1.63;100.00
12146;BME280;6136;47.032;15.398;2022-12-18T12:57:02;99329.94;;;-1.65;100.00
12146;BME280;6136;47.032;15.398;2022-12-18T12:59:42;99332.63;;;-1.59;100.00
12146;BME280;6136;47.032;15.398;2022-12-18T13:02:20;99324.19;;;-1.43;100.00
12146;BME280;6136;47.032;15.398;2022-12-18T13:04:56;99318.03;;;-1.49;100.00
12146;BME280;6136;47.032;15.398;2022-12-18T13:07:28;99318.97;;;-1.43;100.00
12146;BME280;6136;47.032;15.398;2022-12-18T13:10:26;99319.91;;;-1.38;100.00
12146;BME280;6136;47.032;15.398;2022-12-18T13:12:56;99312.19;;;-1.32;100.00
12146;BME280;6136;47.032;15.398;2022-12-18T13:15:29;99320.06;;;-1.26;100.00
12146;BME280;6136;47.032;15.398;2022-12-18T13:18:11;99310.34;;;-1.39;100.00